SCTE 220500Z 00000KT 4000 BR SCT018 01/01 Q1020 NOSIG